Delta, Iowa
Current Conditions -  °F | °C
As of 11:15 AM on Sunday 23 Nov 2014 (Local Time) from KOOA Reporting Station
Moderate Rain Moderate Rain  
Wind Chill: 50°   Ceiling: 600
Heat Index: 50°   Visibility: 5mi
Dew Point: 49°   Wind: 9mph
Humidity: 97%   Direction: 160°SSE
Pressure: 29.47"   Gusts: NA
Location:  41.32°N, 92.33°W
Report Text: KOOA 231715Z AUTO 16008KT 5SM RA OVC006 10/10 A2947 RMK AO2 P0002 T01000096
Loading
Personal Weather Stations






























Interactive Weather Map New forecast layout! Learn more

10-Day Weather Forecast

Advertisements
Track Severe Weather on mobile